Time;durP1;ratioP1;P1;durP2;ratioP2;P2;SDS_P1;SDS_P2;PMS_P1;PMS_P2;Temp;Humidity;BMP_temperature;BMP_pressure;BME280_temperature;BME280_humidity;BME280_pressure;Samples;Min_cycle;Max_cycle;Signal;HPM_P1;HPM_P2
2023/05/04 00:00:57;;;;;;;;;;;;;;;;;;5116604;28;19916;-67
2023/05/04 00:03:23;;;;;;;;;;;;;;;;;;5117321;28;20343;-67
2023/05/04 00:05:49;;;;;;;;;;;;;;;;;;5116232;28;19915;-67
2023/05/04 00:08:15;;;;;;;;;;;;;;;;;;5116642;28;19915;-67
2023/05/04 00:10:41;;;;;;;;;;;;;;;;;;5116551;28;19908;-67
2023/05/04 00:13:06;;;;;;;;;;;;;;;;;;5116075;28;19912;-67
2023/05/04 00:15:32;;;;;;;;;;;;;;;;;;5098242;28;19908;-67
2023/05/04 00:17:58;;;;;;;;;;;;;;;;;;5116274;28;19951;-67
2023/05/04 00:20:24;;;;;;;;;;;;;;;;;;5115816;28;19912;-67
2023/05/04 00:22:50;;;;;;;;;;;;;;;;;;5116237;28;19926;-68
2023/05/04 00:25:16;;;;;;;;;;;;;;;;;;5116177;28;19907;-67
2023/05/04 00:27:42;;;;;;;;;;;;;;;;;;5115821;28;19996;-67
2023/05/04 00:30:08;;;;;;;;;;;;;;;;;;5116172;28;19912;-67
2023/05/04 00:32:34;;;;;;;;;;;;;;;;;;5116077;28;19914;-68
2023/05/04 00:35:00;;;;;;;;;;;;;;;;;;5115667;28;19915;-67
2023/05/04 00:37:26;;;;;;;;;;;;;;;;;;5097702;28;19908;-67
2023/05/04 00:39:52;;;;;;;;;;;;;;;;;;5115964;28;20010;-68
2023/05/04 00:42:18;;;;;;;;;;;;;;;;;;5115536;28;19916;-67
2023/05/04 00:44:44;;;;;;;;;;;;;;;;;;5115904;28;19907;-68
2023/05/04 00:47:10;;;;;;;;;;;;;;;;;;5115827;28;19990;-67
2023/05/04 00:49:36;;;;;;;;;;;;;;;;;;5115525;28;20280;-68
2023/05/04 00:52:02;;;;;;;;;;;;;;;;;;5115689;28;19937;-67
2023/05/04 00:54:28;;;;;;;;;;;;;;;;;;5115733;28;20007;-67
2023/05/04 00:56:54;;;;;;;;;;;;;;;;;;5115266;28;19907;-67
2023/05/04 00:59:20;;;;;;;;;;;;;;;;;;5115591;28;19947;-67
2023/05/04 01:01:46;;;;;;;;;;;;;;;;;;5115347;28;19916;-67
2023/05/04 01:04:12;;;;;;;;;;;;;;;;;;5115353;28;19914;-68
2023/05/04 01:06:38;;;;;;;;;;;;;;;;;;5115505;28;19908;-67
2023/05/04 01:09:05;;;;;;;;;;;;;;;;;;5114992;28;19912;-67
2023/05/04 01:11:31;;;;;;;;;;;;;;;;;;5115294;28;19908;-68
2023/05/04 01:13:56;;;;;;;;;;;;;;;;;;5115403;28;20407;-67
2023/05/04 01:16:22;;;;;;;;;;;;;;;;;;5115192;28;20447;-68
2023/05/04 01:18:48;;;;;;;;;;;;;;;;;;5096964;28;20418;-67
2023/05/04 01:21:14;;;;;;;;;;;;;;;;;;5115548;28;20284;-67
2023/05/04 01:23:40;;;;;;;;;;;;;;;;;;5114686;28;20312;-67
2023/05/04 01:26:06;;;;;;;;;;;;;;;;;;5096775;28;20288;-67
2023/05/04 01:28:32;;;;;;;;;;;;;;;;;;5114972;28;19912;-67
2023/05/04 01:30:58;;;;;;;;;;;;;;;;;;5114041;28;20249;-68
2023/05/04 01:33:24;;;;;;;;;;;;;;;;;;5114983;28;19914;-67
2023/05/04 01:35:50;;;;;;;;;;;;;;;;;;5114945;28;19907;-67
2023/05/04 01:38:16;;;;;;;;;;;;;;;;;;5114445;28;19908;-67
2023/05/04 01:40:42;;;;;;;;;;;;;;;;;;5115015;28;19968;-67
2023/05/04 01:43:08;;;;;;;;;;;;;;;;;;5114729;28;19995;-67
2023/05/04 01:45:34;;;;;;;;;;;;;;;;;;5114525;28;20008;-68
2023/05/04 01:48:00;;;;;;;;;;;;;;;;;;5096502;28;19915;-67
2023/05/04 01:50:26;;;;;;;;;;;;;;;;;;5114702;28;19908;-67
2023/05/04 01:52:52;;;;;;;;;;;;;;;;;;5114309;28;19908;-67
2023/05/04 01:55:18;;;;;;;;;;;;;;;;;;5114629;28;19953;-68
2023/05/04 01:57:44;;;;;;;;;;;;;;;;;;5115178;28;19935;-68
2023/05/04 02:00:10;;;;;;;;;;;;;;;;;;5114043;28;19907;-67
2023/05/04 02:02:36;;;;;;;;;;;;;;;;;;5114545;28;20343;-67
2023/05/04 02:05:02;;;;;;;;;;;;;;;;;;5114494;28;19915;-67
2023/05/04 02:07:28;;;;;;;;;;;;;;;;;;5113970;28;20362;-67
2023/05/04 02:09:54;;;;;;;;;;;;;;;;;;5114354;28;20427;-68
2023/05/04 02:12:20;;;;;;;;;;;;;;;;;;5095774;28;19932;-68
2023/05/04 02:14:46;;;;;;;;;;;;;;;;;;5114581;28;19912;-67
2023/05/04 02:17:12;;;;;;;;;;;;;;;;;;5114549;28;19914;-67
2023/05/04 02:19:38;;;;;;;;;;;;;;;;;;5114170;28;20382;-67
2023/05/04 02:22:04;;;;;;;;;;;;;;;;;;5095765;28;20018;-67
2023/05/04 02:24:30;;;;;;;;;;;;;;;;;;5114300;28;20372;-67
2023/05/04 02:26:57;;;;;;;;;;;;;;;;;;5113896;28;20332;-67
2023/05/04 02:29:23;;;;;;;;;;;;;;;;;;5114442;28;19908;-67
2023/05/04 02:31:49;;;;;;;;;;;;;;;;;;5114340;28;19960;-67
2023/05/04 02:34:15;;;;;;;;;;;;;;;;;;5113843;28;19915;-68
2023/05/04 02:36:41;;;;;;;;;;;;;;;;;;5114150;28;19998;-68
2023/05/04 02:39:07;;;;;;;;;;;;;;;;;;5114100;28;19919;-68
2023/05/04 02:41:32;;;;;;;;;;;;;;;;;;5113573;28;19916;-68
2023/05/04 02:43:58;;;;;;;;;;;;;;;;;;5117934;28;19908;-68
2023/05/04 02:46:25;;;;;;;;;;;;;;;;;;5118181;28;19954;-68
2023/05/04 02:48:51;;;;;;;;;;;;;;;;;;5117742;28;19908;-68
2023/05/04 02:51:17;;;;;;;;;;;;;;;;;;5118062;28;19912;-67
2023/05/04 02:53:43;;;;;;;;;;;;;;;;;;5117989;28;19914;-67
2023/05/04 02:56:09;;;;;;;;;;;;;;;;;;5117652;28;19908;-67
2023/05/04 02:58:35;;;;;;;;;;;;;;;;;;5117965;28;20037;-67
2023/05/04 03:01:01;;;;;;;;;;;;;;;;;;5117777;28;20292;-68
2023/05/04 03:03:27;;;;;;;;;;;;;;;;;;5117471;28;19912;-68
2023/05/04 03:05:53;;;;;;;;;;;;;;;;;;5117888;28;19908;-68
2023/05/04 03:08:19;;;;;;;;;;;;;;;;;;5117794;28;19908;-68
2023/05/04 03:10:45;;;;;;;;;;;;;;;;;;5117308;28;19960;-68
2023/05/04 03:13:11;;;;;;;;;;;;;;;;;;5117689;28;19908;-68
2023/05/04 03:15:37;;;;;;;;;;;;;;;;;;5117566;28;19998;-68
2023/05/04 03:18:03;;;;;;;;;;;;;;;;;;5117560;28;19914;-68
2023/05/04 03:20:29;;;;;;;;;;;;;;;;;;5117520;28;19911;-68
2023/05/04 03:22:55;;;;;;;;;;;;;;;;;;5116947;28;20287;-68
2023/05/04 03:25:21;;;;;;;;;;;;;;;;;;5117436;28;19911;-68
2023/05/04 03:27:47;;;;;;;;;;;;;;;;;;5099126;28;20444;-68
2023/05/04 03:30:12;;;;;;;;;;;;;;;;;;5116901;28;19907;-68
2023/05/04 03:32:38;;;;;;;;;;;;;;;;;;5117291;28;19908;-69
2023/05/04 03:35:04;;;;;;;;;;;;;;;;;;5117238;28;19914;-69
2023/05/04 03:37:30;;;;;;;;;;;;;;;;;;5117137;28;19947;-68
2023/05/04 03:39:56;;;;;;;;;;;;;;;;;;5117149;28;19931;-69
2023/05/04 03:42:22;;;;;;;;;;;;;;;;;;5117012;28;19933;-68
2023/05/04 03:44:48;;;;;;;;;;;;;;;;;;5116780;28;19914;-68
2023/05/04 03:47:14;;;;;;;;;;;;;;;;;;5117189;28;19994;-68
2023/05/04 03:49:40;;;;;;;;;;;;;;;;;;5116939;28;19908;-68
2023/05/04 03:52:06;;;;;;;;;;;;;;;;;;5098225;28;20307;-68
2023/05/04 03:54:32;;;;;;;;;;;;;;;;;;5116445;28;19915;-68
2023/05/04 03:56:58;;;;;;;;;;;;;;;;;;5116865;28;19908;-68
2023/05/04 03:59:24;;;;;;;;;;;;;;;;;;5116551;28;20248;-68
2023/05/04 04:01:50;;;;;;;;;;;;;;;;;;5116628;28;19923;-68
2023/05/04 04:04:16;;;;;;;;;;;;;;;;;;5116719;28;20283;-68
2023/05/04 04:06:42;;;;;;;;;;;;;;;;;;5116312;28;20370;-69
2023/05/04 04:09:08;;;;;;;;;;;;;;;;;;5116710;28;20260;-69
2023/05/04 04:11:34;;;;;;;;;;;;;;;;;;5116543;28;20279;-68
2023/05/04 04:14:00;;;;;;;;;;;;;;;;;;5116107;28;20324;-69
2023/05/04 04:16:32;;;;;;;;;;;;;;;;;;5116484;28;19958;-67
2023/05/04 04:19:00;;;;;;;;;;;;;;;;;;5116322;28;20360;-67
2023/05/04 04:21:26;;;;;;;;;;;;;;;;;;5116031;28;20299;-69
2023/05/04 04:23:52;;;;;;;;;;;;;;;;;;5116366;28;19915;-68
2023/05/04 04:26:19;;;;;;;;;;;;;;;;;;5097658;28;20472;-68
2023/05/04 04:28:49;;;;;;;;;;;;;;;;;;5116267;28;19908;-66
2023/05/04 04:31:15;;;;;;;;;;;;;;;;;;5116131;28;20371;-67
2023/05/04 04:33:41;;;;;;;;;;;;;;;;;;5115908;28;19908;-67
2023/05/04 04:36:07;;;;;;;;;;;;;;;;;;5116005;28;19912;-67
2023/05/04 04:38:33;;;;;;;;;;;;;;;;;;5115954;28;19908;-67
2023/05/04 04:40:59;;;;;;;;;;;;;;;;;;5115494;28;19923;-67
2023/05/04 04:43:25;;;;;;;;;;;;;;;;;;5115969;28;19998;-68
2023/05/04 04:45:52;;;;;;;;;;;;;;;;;;5115882;28;19928;-69
2023/05/04 04:48:20;;;;;;;;;;;;;;;;;;5115456;28;20283;-69
2023/05/04 04:50:47;;;;;;;;;;;;;;;;;;5115737;28;20322;-69
2023/05/04 04:53:13;;;;;;;;;;;;;;;;;;5115777;28;20291;-69
2023/05/04 04:55:39;;;;;;;;;;;;;;;;;;5115617;28;20002;-67
2023/05/04 04:58:07;;;;;;;;;;;;;;;;;;5097339;28;20429;-67
2023/05/04 05:00:34;;;;;;;;;;;;;;;;;;5115565;28;19958;-68
2023/05/04 05:03:00;;;;;;;;;;;;;;;;;;5115143;28;19918;-68
2023/05/04 05:05:26;;;;;;;;;;;;;;;;;;5114585;28;19908;-68
2023/05/04 05:07:52;;;;;;;;;;;;;;;;;;5115457;28;19908;-67
2023/05/04 05:10:19;;;;;;;;;;;;;;;;;;5114961;28;19908;-67
2023/05/04 05:12:45;;;;;;;;;;;;;;;;;;5115300;28;20387;-70
2023/05/04 05:15:11;;;;;;;;;;;;;;;;;;5096480;28;19907;-68
2023/05/04 05:17:38;;;;;;;;;;;;;;;;;;5096953;28;19912;-68
2023/05/04 05:20:08;;;;;;;;;;;;;;;;;;5115178;28;20068;-68
2023/05/04 05:22:34;;;;;;;;;;;;;;;;;;5114524;28;19927;-68
2023/05/04 05:25:00;;;;;;;;;;;;;;;;;;5115048;28;19908;-68
2023/05/04 05:27:26;;;;;;;;;;;;;;;;;;5115064;28;19907;-68
2023/05/04 05:29:52;;;;;;;;;;;;;;;;;;5114536;28;19955;-68
2023/05/04 05:32:18;;;;;;;;;;;;;;;;;;5114924;28;19912;-68
2023/05/04 05:34:44;;;;;;;;;;;;;;;;;;5114872;28;19915;-68
2023/05/04 05:37:10;;;;;;;;;;;;;;;;;;5115712;28;20352;-68
2023/05/04 05:39:36;;;;;;;;;;;;;;;;;;5114874;28;19908;-68
2023/05/04 05:42:02;;;;;;;;;;;;;;;;;;5114740;28;19916;-70
2023/05/04 05:44:28;;;;;;;;;;;;;;;;;;5114558;28;20376;-67
2023/05/04 05:46:54;;;;;;;;;;;;;;;;;;5114739;28;20303;-69
2023/05/04 05:49:20;;;;;;;;;;;;;;;;;;5114714;28;19908;-69
2023/05/04 05:51:46;;;;;;;;;;;;;;;;;;5114221;28;19907;-68
2023/05/04 05:54:12;;;;;;;;;;;;;;;;;;5114639;28;19915;-69
2023/05/04 05:56:38;;;;;;;;;;;;;;;;;;5114575;28;19908;-68
2023/05/04 05:59:05;;;;;;;;;;;;;;;;;;5114145;28;19914;-68
2023/05/04 06:01:31;;;;;;;;;;;;;;;;;;5114368;28;19923;-69
2023/05/04 06:03:57;;;;;;;;;;;;;;;;;;5114503;28;19914;-69
2023/05/04 06:06:23;;;;;;;;;;;;;;;;;;5114059;28;20003;-68
2023/05/04 06:08:49;;;;;;;;;;;;;;;;;;5114453;28;19934;-69
2023/05/04 06:11:15;;;;;;;;;;;;;;;;;;5114159;28;19908;-70
2023/05/04 06:13:40;;;;;;;;;;;;;;;;;;5114970;28;19914;-69
2023/05/04 06:16:06;;;;;;;;;;;;;;;;;;5114165;28;19907;-70
2023/05/04 06:18:32;;;;;;;;;;;;;;;;;;5113875;28;19914;-70
2023/05/04 06:20:58;;;;;;;;;;;;;;;;;;5095827;28;19976;-69
2023/05/04 06:23:25;;;;;;;;;;;;;;;;;;5114474;28;19912;-70
2023/05/04 06:25:51;;;;;;;;;;;;;;;;;;5095846;28;20271;-69
2023/05/04 06:28:17;;;;;;;;;;;;;;;;;;5095912;28;19916;-69
2023/05/04 06:30:43;;;;;;;;;;;;;;;;;;5095842;28;19908;-69
2023/05/04 06:33:09;;;;;;;;;;;;;;;;;;5113772;28;19908;-68
2023/05/04 06:35:35;;;;;;;;;;;;;;;;;;5114111;28;19914;-68
2023/05/04 06:38:01;;;;;;;;;;;;;;;;;;5114071;28;19908;-68
2023/05/04 06:40:28;;;;;;;;;;;;;;;;;;5095362;28;19957;-68
2023/05/04 06:42:54;;;;;;;;;;;;;;;;;;5114034;28;19912;-68
2023/05/04 06:45:19;;;;;;;;;;;;;;;;;;5114058;28;19908;-69
2023/05/04 06:47:46;;;;;;;;;;;;;;;;;;5113650;28;19908;-69
2023/05/04 06:50:12;;;;;;;;;;;;;;;;;;5113949;28;19976;-69
2023/05/04 06:52:37;;;;;;;;;;;;;;;;;;5113988;28;19912;-69
2023/05/04 06:55:03;;;;;;;;;;;;;;;;;;5113502;28;19954;-69
2023/05/04 06:57:30;;;;;;;;;;;;;;;;;;5113931;28;19914;-69
2023/05/04 06:59:56;;;;;;;;;;;;;;;;;;5113996;28;20436;-69
2023/05/04 07:02:22;;;;;;;;;;;;;;;;;;5113443;28;20006;-69
2023/05/04 07:04:47;;;;;;;;;;;;;;;;;;5095565;28;20015;-69
2023/05/04 07:07:13;;;;;;;;;;;;;;;;;;5113709;28;19933;-69
2023/05/04 07:09:39;;;;;;;;;;;;;;;;;;5112990;28;19930;-69
2023/05/04 07:12:05;;;;;;;;;;;;;;;;;;5113740;28;20229;-67
2023/05/04 07:14:31;;;;;;;;;;;;;;;;;;5113732;28;19994;-66
2023/05/04 07:16:57;;;;;;;;;;;;;;;;;;5113412;28;19918;-66
2023/05/04 07:19:23;;;;;;;;;;;;;;;;;;5113717;28;19947;-66
2023/05/04 07:21:49;;;;;;;;;;;;;;;;;;5112923;28;19990;-66
2023/05/04 07:24:15;;;;;;;;;;;;;;;;;;5095740;28;19912;-65
2023/05/04 07:26:41;;;;;;;;;;;;;;;;;;5113859;28;20248;-68
2023/05/04 07:29:08;;;;;;;;;;;;;;;;;;5114937;28;19912;-67
2023/05/04 07:31:34;;;;;;;;;;;;;;;;;;5117269;28;20355;-66
2023/05/04 07:34:00;;;;;;;;;;;;;;;;;;5118338;28;19907;-65
2023/05/04 07:36:26;;;;;;;;;;;;;;;;;;5113463;28;19955;-65
2023/05/04 07:38:52;;;;;;;;;;;;;;;;;;5096558;28;20541;-66
2023/05/04 07:41:18;;;;;;;;;;;;;;;;;;5097463;28;20026;-65
2023/05/04 07:43:44;;;;;;;;;;;;;;;;;;5104451;28;20442;-65
2023/05/04 07:46:10;;;;;;;;;;;;;;;;;;5098109;28;19907;-64
2023/05/04 07:48:36;;;;;;;;;;;;;;;;;;5116072;28;19950;-64
2023/05/04 07:51:02;;;;;;;;;;;;;;;;;;5106738;28;19912;-66
2023/05/04 07:53:28;;;;;;;;;;;;;;;;;;5095417;28;19908;-66
2023/05/04 07:55:56;;;;;;;;;;;;;;;;;;5094186;28;19961;-66
2023/05/04 07:58:22;;;;;;;;;;;;;;;;;;5095385;28;19935;-66
2023/05/04 08:00:48;;;;;;;;;;;;;;;;;;5094125;28;20341;-66
2023/05/04 08:03:51;;;;;;;;;;;;;;;;;;5089489;27;20288;-66
2023/05/04 08:08:01;;;;;;;;;;;;;;;;;;5088614;27;19923;-66
2023/05/04 08:10:28;;;;;;;;;;;;;;;;;;5089121;28;19912;-66
2023/05/04 08:12:54;;;;;;;;;;;;;;;;;;5088683;28;19909;-66
2023/05/04 08:16:00;;;;;;;;;;;;;;;;;;5109557;27;20272;-65
2023/05/04 08:18:27;;;;;;;;;;;;;;;;;;5109114;28;20368;-66
2023/05/04 08:23:17;;;;;;;;;;;;;;;;;;5087737;27;19927;-65
2023/05/04 08:25:43;;;;;;;;;;;;;;;;;;5088909;28;19945;-66
2023/05/04 08:28:09;;;;;;;;;;;;;;;;;;5081763;28;20361;-67
2023/05/04 08:30:36;;;;;;;;;;;;;;;;;;5088413;28;19908;-67
2023/05/04 08:33:02;;;;;;;;;;;;;;;;;;5088523;28;20019;-67
2023/05/04 08:35:28;;;;;;;;;;;;;;;;;;5088876;28;19915;-66
2023/05/04 08:37:55;;;;;;;;;;;;;;;;;;5088645;28;19995;-66
2023/05/04 08:40:22;;;;;;;;;;;;;;;;;;5087201;28;20296;-66
2023/05/04 08:42:50;;;;;;;;;;;;;;;;;;5089637;28;20373;-69
2023/05/04 08:45:16;;;;;;;;;;;;;;;;;;5089199;28;19912;-68
2023/05/04 08:48:46;;;;;;;;;;;;;;;;;;5065763;28;19944;-66
2023/05/04 08:51:46;;;;;;;;;;;;;;;;;;5089352;27;19927;-66
2023/05/04 08:54:12;;;;;;;;;;;;;;;;;;5089985;28;19995;-67
2023/05/04 08:57:15;;;;;;;;;;;;;;;;;;5094222;27;19927;-66
2023/05/04 08:59:41;;;;;;;;;;;;;;;;;;5087690;28;19916;-68
2023/05/04 09:04:31;;;;;;;;;;;;;;;;;;5151973;27;19938;-66
2023/05/04 09:06:57;;;;;;;;;;;;;;;;;;5141340;27;20388;-67
2023/05/04 09:09:23;;;;;;;;;;;;;;;;;;5123673;27;19956;-68
2023/05/04 09:11:49;;;;;;;;;;;;;;;;;;5147827;27;19929;-69
2023/05/04 09:19:09;;;;;;;;;;;;;;;;;;5130764;27;19920;-66
2023/05/04 09:22:08;;;;;;;;;;;;;;;;;;5151584;27;19922;-68
2023/05/04 09:25:13;;;;;;;;;;;;;;;;;;5089757;27;20295;-68
2023/05/04 09:30:22;;;;;;;;;;;;;;;;;;5089559;27;19912;-68
2023/05/04 09:36:00;;;;;;;;;;;;;;;;;;5090001;28;19921;-69
2023/05/04 09:38:26;;;;;;;;;;;;;;;;;;5090054;28;19918;-70
2023/05/04 09:40:52;;;;;;;;;;;;;;;;;;5091144;28;19913;-68
2023/05/04 09:45:37;;;;;;;;;;;;;;;;;;5090457;27;19920;-68
2023/05/04 09:48:03;;;;;;;;;;;;;;;;;;5091219;28;19912;-69
2023/05/04 09:50:32;;;;;;;;;;;;;;;;;;5091046;28;19908;-70
2023/05/04 09:53:37;;;;;;;;;;;;;;;;;;5153117;27;19918;-72
2023/05/04 09:56:03;;;;;;;;;;;;;;;;;;5133582;27;19911;-69
2023/05/04 09:58:29;;;;;;;;;;;;;;;;;;5152457;27;19929;-69
2023/05/04 10:00:55;;;;;;;;;;;;;;;;;;5151969;27;19936;-67
2023/05/04 10:06:12;;;;;;;;;;;;;;;;;;5091278;27;19916;-68
2023/05/04 10:08:39;;;;;;;;;;;;;;;;;;5089994;28;20380;-68
2023/05/04 10:13:16;;;;;;;;;;;;;;;;;;5090524;27;20269;-69
2023/05/04 10:18:10;;;;;;;;;;;;;;;;;;5069885;28;20292;-68
2023/05/04 10:20:36;;;;;;;;;;;;;;;;;;5069997;28;19912;-69
2023/05/04 10:23:02;;;;;;;;;;;;;;;;;;5069395;28;19909;-69
2023/05/04 10:31:49;;;;;;;;;;;;;;;;;;5090653;27;19920;-68
2023/05/04 10:34:15;;;;;;;;;;;;;;;;;;5090967;28;20392;-68
2023/05/04 10:38:38;;;;;;;;;;;;;;;;;;5091618;28;20307;-68
2023/05/04 10:41:04;;;;;;;;;;;;;;;;;;5090068;28;20344;-68
2023/05/04 10:43:31;;;;;;;;;;;;;;;;;;5091265;28;19940;-68
2023/05/04 10:48:29;;;;;;;;;;;;;;;;;;5091630;27;19923;-69
2023/05/04 10:50:55;;;;;;;;;;;;;;;;;;5091569;28;19999;-70
2023/05/04 10:53:22;;;;;;;;;;;;;;;;;;5090921;28;19909;-68
2023/05/04 10:55:48;;;;;;;;;;;;;;;;;;5091281;28;19909;-68
2023/05/04 10:58:15;;;;;;;;;;;;;;;;;;5091127;28;19932;-69
2023/05/04 11:00:41;;;;;;;;;;;;;;;;;;5090656;28;20280;-70
2023/05/04 11:03:46;;;;;;;;;;;;;;;;;;5153088;27;19911;-69
2023/05/04 11:08:20;;;;;;;;;;;;;;;;;;5091218;27;19916;-69
2023/05/04 11:11:20;;;;;;;;;;;;;;;;;;5112233;27;19912;-68
2023/05/04 11:16:12;;;;;;;;;;;;;;;;;;5091586;27;19923;-69
2023/05/04 11:18:38;;;;;;;;;;;;;;;;;;5091351;28;20355;-68
2023/05/04 11:23:13;;;;;;;;;;;;;;;;;;5092180;27;20387;-68
2023/05/04 11:25:39;;;;;;;;;;;;;;;;;;5091409;28;20010;-70
2023/05/04 11:28:05;;;;;;;;;;;;;;;;;;5090965;28;20313;-69
2023/05/04 11:30:32;;;;;;;;;;;;;;;;;;5091528;28;20283;-69
2023/05/04 11:32:59;;;;;;;;;;;;;;;;;;5091454;28;19970;-69
2023/05/04 11:35:25;;;;;;;;;;;;;;;;;;5091015;28;19999;-69
2023/05/04 11:37:51;;;;;;;;;;;;;;;;;;5091469;28;20327;-69
2023/05/04 11:41:38;;;;;;;;;;;;;;;;;;5092217;27;19919;-69
2023/05/04 11:44:04;;;;;;;;;;;;;;;;;;5091060;28;19913;-69
2023/05/04 11:46:30;;;;;;;;;;;;;;;;;;5091498;28;19983;-69
2023/05/04 11:49:50;;;;;;;;;;;;;;;;;;5091495;27;19923;-68
2023/05/04 11:52:16;;;;;;;;;;;;;;;;;;5091362;28;20376;-70
2023/05/04 11:54:42;;;;;;;;;;;;;;;;;;5091295;28;19930;-69
2023/05/04 11:57:08;;;;;;;;;;;;;;;;;;5091011;28;19962;-69
2023/05/04 12:03:18;;;;;;;;;;;;;;;;;;5091414;27;19913;-69
2023/05/04 12:05:44;;;;;;;;;;;;;;;;;;5091364;28;20014;-68
2023/05/04 12:08:11;;;;;;;;;;;;;;;;;;5091414;28;19999;-69
2023/05/04 12:10:57;;;;;;;;;;;;;;;;;;5091465;27;19939;-69
2023/05/04 12:13:23;;;;;;;;;;;;;;;;;;5091513;28;20436;-69
2023/05/04 12:15:49;;;;;;;;;;;;;;;;;;5091254;28;19908;-69
2023/05/04 12:18:15;;;;;;;;;;;;;;;;;;5090712;28;19908;-69
2023/05/04 12:21:40;;;;;;;;;;;;;;;;;;5091756;28;19922;-68
2023/05/04 12:24:06;;;;;;;;;;;;;;;;;;5091141;28;20007;-68
2023/05/04 12:26:32;;;;;;;;;;;;;;;;;;5091275;28;19909;-68
2023/05/04 12:28:58;;;;;;;;;;;;;;;;;;5091520;28;20003;-68
2023/05/04 12:31:24;;;;;;;;;;;;;;;;;;5090749;28;19935;-68
2023/05/04 12:33:50;;;;;;;;;;;;;;;;;;5091352;28;19995;-68
2023/05/04 12:36:16;;;;;;;;;;;;;;;;;;5091199;28;19961;-68
2023/05/04 12:38:42;;;;;;;;;;;;;;;;;;5090782;28;19916;-68
2023/05/04 12:41:09;;;;;;;;;;;;;;;;;;5090996;28;19917;-69
2023/05/04 12:45:11;;;;;;;;;;;;;;;;;;5091510;27;19923;-68
2023/05/04 12:47:37;;;;;;;;;;;;;;;;;;5091277;28;20003;-69
2023/05/04 12:50:04;;;;;;;;;;;;;;;;;;5091178;28;19909;-68
2023/05/04 12:52:30;;;;;;;;;;;;;;;;;;5090759;28;19912;-68
2023/05/04 12:54:56;;;;;;;;;;;;;;;;;;5091151;28;20394;-69
2023/05/04 12:57:22;;;;;;;;;;;;;;;;;;5091370;28;19999;-68
2023/05/04 12:59:47;;;;;;;;;;;;;;;;;;5090758;28;19909;-69
2023/05/04 13:02:14;;;;;;;;;;;;;;;;;;5091362;28;19916;-70
2023/05/04 13:04:40;;;;;;;;;;;;;;;;;;5090951;28;19924;-69
2023/05/04 13:07:06;;;;;;;;;;;;;;;;;;5090886;28;19909;-69
2023/05/04 13:09:31;;;;;;;;;;;;;;;;;;5090877;28;20284;-69
2023/05/04 13:11:57;;;;;;;;;;;;;;;;;;5090867;28;19916;-69
2023/05/04 13:14:23;;;;;;;;;;;;;;;;;;5089262;28;19943;-68
2023/05/04 13:16:50;;;;;;;;;;;;;;;;;;5090839;28;19909;-69
2023/05/04 13:19:16;;;;;;;;;;;;;;;;;;5090784;28;19909;-69
2023/05/04 13:21:42;;;;;;;;;;;;;;;;;;5090205;28;19931;-68
2023/05/04 13:24:10;;;;;;;;;;;;;;;;;;5089200;28;19916;-68
2023/05/04 13:26:36;;;;;;;;;;;;;;;;;;5090518;28;19948;-68
2023/05/04 13:29:03;;;;;;;;;;;;;;;;;;5090115;28;19948;-69
2023/05/04 13:33:33;;;;;;;;;;;;;;;;;;5112210;27;19922;-68
2023/05/04 13:36:00;;;;;;;;;;;;;;;;;;5111218;28;20003;-68
2023/05/04 13:38:26;;;;;;;;;;;;;;;;;;5111868;28;20277;-68
2023/05/04 13:40:52;;;;;;;;;;;;;;;;;;5111551;28;19919;-69
2023/05/04 13:43:18;;;;;;;;;;;;;;;;;;5111047;28;19962;-69
2023/05/04 13:45:44;;;;;;;;;;;;;;;;;;5111490;28;19909;-68
2023/05/04 13:48:10;;;;;;;;;;;;;;;;;;5111759;28;20002;-69
2023/05/04 13:50:36;;;;;;;;;;;;;;;;;;5111048;28;19915;-69
2023/05/04 13:53:02;;;;;;;;;;;;;;;;;;5111231;28;19923;-69
2023/05/04 13:55:28;;;;;;;;;;;;;;;;;;5110872;28;19908;-69
2023/05/04 13:57:54;;;;;;;;;;;;;;;;;;5111294;28;19915;-69
2023/05/04 14:00:20;;;;;;;;;;;;;;;;;;5111124;28;19912;-69
2023/05/04 14:02:46;;;;;;;;;;;;;;;;;;5110775;28;20380;-69
2023/05/04 14:05:12;;;;;;;;;;;;;;;;;;5111135;28;19942;-70
2023/05/04 14:07:38;;;;;;;;;;;;;;;;;;5111142;28;20388;-69
2023/05/04 14:10:04;;;;;;;;;;;;;;;;;;5110587;28;19994;-70
2023/05/04 14:15:23;;;;;;;;;;;;;;;;;;5091875;27;20307;-69
2023/05/04 14:17:49;;;;;;;;;;;;;;;;;;5091208;28;19979;-69
2023/05/04 14:22:41;;;;;;;;;;;;;;;;;;5091510;28;19922;-68
2023/05/04 14:25:07;;;;;;;;;;;;;;;;;;5090942;28;20003;-68
2023/05/04 14:27:36;;;;;;;;;;;;;;;;;;5091521;28;19961;-68
2023/05/04 14:30:02;;;;;;;;;;;;;;;;;;5091424;28;19908;-68
2023/05/04 14:34:11;;;;;;;;;;;;;;;;;;5091666;27;19916;-67
2023/05/04 14:36:37;;;;;;;;;;;;;;;;;;5091331;28;20424;-68
2023/05/04 14:39:03;;;;;;;;;;;;;;;;;;5090736;28;19955;-70
2023/05/04 14:41:34;;;;;;;;;;;;;;;;;;5091544;28;19909;-69
2023/05/04 14:44:49;;;;;;;;;;;;;;;;;;5091404;27;19916;-68
2023/05/04 14:47:35;;;;;;;;;;;;;;;;;;5092316;27;19923;-69
2023/05/04 14:50:01;;;;;;;;;;;;;;;;;;5091447;28;19955;-70
2023/05/04 14:52:27;;;;;;;;;;;;;;;;;;5090882;28;19909;-68
2023/05/04 14:55:10;;;;;;;;;;;;;;;;;;5091663;27;20368;-69
2023/05/04 14:57:36;;;;;;;;;;;;;;;;;;5091572;28;20326;-68
2023/05/04 15:00:39;;;;;;;;;;;;;;;;;;5091156;27;19916;-69
2023/05/04 15:03:05;;;;;;;;;;;;;;;;;;5090027;28;19916;-68
2023/05/04 15:05:31;;;;;;;;;;;;;;;;;;5091246;28;19915;-69
2023/05/04 15:07:57;;;;;;;;;;;;;;;;;;5090810;28;19908;-68
2023/05/04 15:10:23;;;;;;;;;;;;;;;;;;5091168;28;19908;-69
2023/05/04 15:12:49;;;;;;;;;;;;;;;;;;5090983;28;19909;-70
2023/05/04 15:15:16;;;;;;;;;;;;;;;;;;5091085;28;20050;-69
2023/05/04 15:17:42;;;;;;;;;;;;;;;;;;5091082;28;20325;-69
2023/05/04 15:20:08;;;;;;;;;;;;;;;;;;5090607;28;20380;-69
2023/05/04 15:25:00;;;;;;;;;;;;;;;;;;5071613;28;19919;-69
2023/05/04 15:27:26;;;;;;;;;;;;;;;;;;5071225;28;20411;-69
2023/05/04 15:29:53;;;;;;;;;;;;;;;;;;5071446;28;19909;-69
2023/05/04 15:32:19;;;;;;;;;;;;;;;;;;5071066;28;19909;-69
2023/05/04 15:34:45;;;;;;;;;;;;;;;;;;5070541;28;19982;-70
2023/05/04 15:37:11;;;;;;;;;;;;;;;;;;5070948;28;19909;-70
2023/05/04 15:40:15;;;;;;;;;;;;;;;;;;5091384;27;20308;-69
2023/05/04 15:42:41;;;;;;;;;;;;;;;;;;5091124;28;20003;-70
2023/05/04 15:45:07;;;;;;;;;;;;;;;;;;5091782;28;20303;-68
2023/05/04 15:47:34;;;;;;;;;;;;;;;;;;5091290;28;19938;-69
2023/05/04 15:51:25;;;;;;;;;;;;;;;;;;5153216;27;20086;-68
2023/05/04 15:53:51;;;;;;;;;;;;;;;;;;5152862;27;19911;-68
2023/05/04 15:56:17;;;;;;;;;;;;;;;;;;5152435;27;19908;-68
2023/05/04 15:58:43;;;;;;;;;;;;;;;;;;5152683;27;19957;-68
2023/05/04 16:01:20;;;;;;;;;;;;;;;;;;5091386;28;20308;-69
2023/05/04 16:03:46;;;;;;;;;;;;;;;;;;5091022;28;20323;-68
2023/05/04 16:09:26;;;;;;;;;;;;;;;;;;5091145;27;19916;-68
2023/05/04 16:15:51;;;;;;;;;;;;;;;;;;5091368;27;19939;-67
2023/05/04 16:18:17;;;;;;;;;;;;;;;;;;5090976;28;19995;-67
2023/05/04 16:23:37;;;;;;;;;;;;;;;;;;5111428;27;20296;-67
2023/05/04 16:29:11;;;;;;;;;;;;;;;;;;5091260;27;19919;-68
2023/05/04 16:34:30;;;;;;;;;;;;;;;;;;5091433;27;19919;-69
2023/05/04 16:36:56;;;;;;;;;;;;;;;;;;5091190;28;20007;-69
2023/05/04 16:40:49;;;;;;;;;;;;;;;;;;5091395;28;19916;-68
2023/05/04 16:43:15;;;;;;;;;;;;;;;;;;5091320;28;19912;-68
2023/05/04 16:47:23;;;;;;;;;;;;;;;;;;5111721;27;19916;-68
2023/05/04 16:49:49;;;;;;;;;;;;;;;;;;5111613;28;20452;-69
2023/05/04 16:52:15;;;;;;;;;;;;;;;;;;5111232;28;19908;-68
2023/05/04 16:54:41;;;;;;;;;;;;;;;;;;5112111;28;20275;-68
2023/05/04 16:57:07;;;;;;;;;;;;;;;;;;5111637;28;19908;-69
2023/05/04 16:59:33;;;;;;;;;;;;;;;;;;5111196;28;20380;-68
2023/05/04 17:01:59;;;;;;;;;;;;;;;;;;5111477;28;20391;-69
2023/05/04 17:05:40;;;;;;;;;;;;;;;;;;5091697;28;19935;-67
2023/05/04 17:08:07;;;;;;;;;;;;;;;;;;5091440;28;19918;-69
2023/05/04 17:10:32;;;;;;;;;;;;;;;;;;5091409;28;20431;-68
2023/05/04 17:15:09;;;;;;;;;;;;;;;;;;5091546;27;19912;-69
2023/05/04 17:17:35;;;;;;;;;;;;;;;;;;5091681;28;20007;-69
2023/05/04 17:20:01;;;;;;;;;;;;;;;;;;5091005;28;20339;-68
2023/05/04 17:23:12;;;;;;;;;;;;;;;;;;5091539;27;20269;-67
2023/05/04 17:26:57;;;;;;;;;;;;;;;;;;5091557;27;19916;-69
2023/05/04 17:34:07;;;;;;;;;;;;;;;;;;5144677;27;19916;-69
2023/05/04 17:36:33;;;;;;;;;;;;;;;;;;5112021;28;20007;-69
2023/05/04 17:38:59;;;;;;;;;;;;;;;;;;5111650;28;19908;-68
2023/05/04 17:43:01;;;;;;;;;;;;;;;;;;5112044;27;20303;-67
2023/05/04 17:46:40;;;;;;;;;;;;;;;;;;5091727;27;19923;-67
2023/05/04 17:49:06;;;;;;;;;;;;;;;;;;5091048;28;20381;-69
2023/05/04 17:51:32;;;;;;;;;;;;;;;;;;5091255;28;19920;-67
2023/05/04 17:53:58;;;;;;;;;;;;;;;;;;5091334;28;19916;-68
2023/05/04 17:56:24;;;;;;;;;;;;;;;;;;5090784;28;19954;-68
2023/05/04 17:58:50;;;;;;;;;;;;;;;;;;5091085;28;20369;-68
2023/05/04 18:01:16;;;;;;;;;;;;;;;;;;5089838;28;19908;-67
2023/05/04 18:03:42;;;;;;;;;;;;;;;;;;5090685;28;20361;-67
2023/05/04 18:06:08;;;;;;;;;;;;;;;;;;5091216;28;19917;-67
2023/05/04 18:09:10;;;;;;;;;;;;;;;;;;5091587;28;19912;-67
2023/05/04 18:11:36;;;;;;;;;;;;;;;;;;5091230;28;20408;-67
2023/05/04 18:14:02;;;;;;;;;;;;;;;;;;5091211;28;19909;-67
2023/05/04 18:18:58;;;;;;;;;;;;;;;;;;5091320;28;19916;-68
2023/05/04 18:21:24;;;;;;;;;;;;;;;;;;5091326;28;19958;-68
2023/05/04 18:23:50;;;;;;;;;;;;;;;;;;5090922;28;19908;-69
2023/05/04 18:28:25;;;;;;;;;;;;;;;;;;5091509;27;19919;-68
2023/05/04 18:30:51;;;;;;;;;;;;;;;;;;5090909;28;20380;-69